Metar z połowy godziny Komunikat METAR ze strony awiacja.imgw.pl Metar Mil EPOK METAR EPOK 230900Z 32017KT 9999 FEW052 08/M05 Q1017 RMK 076 042 1/1=